createdAt,value
2018-06-22T00:02:13.335Z,18.60
2018-06-22T00:04:42.291Z,18.60
2018-06-22T00:07:11.105Z,18.60
2018-06-22T00:09:39.713Z,18.60
2018-06-22T00:12:08.266Z,18.60
2018-06-22T00:14:36.873Z,18.60
2018-06-22T00:17:05.423Z,18.50
2018-06-22T00:19:33.948Z,18.50
2018-06-22T00:22:02.496Z,18.50
2018-06-22T00:24:31.053Z,18.40
2018-06-22T00:26:59.555Z,18.30
2018-06-22T00:29:28.263Z,18.30
2018-06-22T00:31:57.075Z,18.30
2018-06-22T00:34:25.918Z,18.30
2018-06-22T00:36:54.753Z,18.40
2018-06-22T00:39:23.426Z,18.40
2018-06-22T00:41:51.955Z,18.40
2018-06-22T00:44:20.919Z,18.40
2018-06-22T00:46:49.434Z,18.40
2018-06-22T00:49:18.156Z,18.30
2018-06-22T00:51:46.986Z,18.20
2018-06-22T00:54:17.121Z,18.10
2018-06-22T00:56:46.514Z,17.90
2018-06-22T00:59:15.353Z,17.90
2018-06-22T01:01:44.224Z,17.80
2018-06-22T01:04:13.083Z,17.80
2018-06-22T01:06:41.916Z,17.80
2018-06-22T01:09:12.313Z,17.80
2018-06-22T01:11:41.153Z,17.80
2018-06-22T01:14:10.019Z,17.70
2018-06-22T01:16:38.951Z,17.70
2018-06-22T01:19:08.281Z,17.60
2018-06-22T01:21:37.166Z,17.70
2018-06-22T01:24:06.477Z,17.70
2018-06-22T01:26:35.323Z,17.70
2018-06-22T01:29:10.066Z,17.70
2018-06-22T01:31:38.555Z,17.70
2018-06-22T01:34:07.096Z,17.60
2018-06-22T01:36:35.596Z,17.70
2018-06-22T01:39:06.608Z,17.70
2018-06-22T01:41:35.113Z,17.60
2018-06-22T01:44:03.693Z,17.50
2018-06-22T01:46:32.566Z,17.50
2018-06-22T01:49:01.295Z,17.60
2018-06-22T01:51:30.130Z,17.60
2018-06-22T01:53:58.975Z,17.60
2018-06-22T01:56:27.803Z,17.50
2018-06-22T01:58:56.630Z,17.60
2018-06-22T02:01:25.446Z,17.50
2018-06-22T02:03:54.640Z,17.40
2018-06-22T02:06:23.520Z,17.40
2018-06-22T02:08:52.361Z,17.30
2018-06-22T02:13:49.770Z,17.30
2018-06-22T02:16:18.619Z,17.30
2018-06-22T02:18:47.328Z,17.30
2018-06-22T02:21:15.916Z,17.30
2018-06-22T02:23:44.466Z,17.30
2018-06-22T02:26:12.964Z,17.30
2018-06-22T02:28:41.690Z,17.20
2018-06-22T02:31:10.547Z,17.10
2018-06-22T02:33:39.377Z,17.00
2018-06-22T02:36:08.216Z,16.90
2018-06-22T02:38:36.816Z,16.90
2018-06-22T02:41:06.260Z,16.90
2018-06-22T02:43:35.347Z,16.90
2018-06-22T02:46:04.048Z,16.90
2018-06-22T02:48:32.615Z,16.80
2018-06-22T02:51:01.432Z,16.80
2018-06-22T02:53:30.044Z,16.70
2018-06-22T02:55:58.553Z,16.80
2018-06-22T02:58:27.113Z,16.90
2018-06-22T03:00:55.633Z,16.90
2018-06-22T03:03:24.173Z,17.00
2018-06-22T03:05:52.671Z,17.00
2018-06-22T03:08:21.242Z,17.10
2018-06-22T03:10:49.801Z,17.10
2018-06-22T03:13:18.617Z,17.10
2018-06-22T03:15:47.301Z,17.10
2018-06-22T03:18:15.820Z,17.00
2018-06-22T03:20:44.551Z,16.90
2018-06-22T03:23:13.383Z,16.90
2018-06-22T03:25:42.296Z,16.90
2018-06-22T03:28:11.112Z,16.90
2018-06-22T03:30:39.935Z,16.90
2018-06-22T03:33:08.788Z,16.90
2018-06-22T03:35:37.630Z,16.90
2018-06-22T03:38:07.305Z,16.80
2018-06-22T03:40:36.150Z,16.90
2018-06-22T03:43:05.495Z,16.90
2018-06-22T03:45:34.353Z,16.90
2018-06-22T03:48:03.221Z,16.90
2018-06-22T03:50:31.898Z,16.90
2018-06-22T03:53:00.508Z,16.90
2018-06-22T03:55:29.270Z,16.80
2018-06-22T03:57:57.870Z,16.90
2018-06-22T04:00:26.531Z,16.90
2018-06-22T04:02:55.127Z,16.80
2018-06-22T04:05:23.701Z,16.90
2018-06-22T04:07:52.201Z,16.90
2018-06-22T04:10:21.035Z,16.80
2018-06-22T04:12:49.887Z,16.90
2018-06-22T04:15:18.686Z,16.90
2018-06-22T04:17:50.203Z,17.00
2018-06-22T04:20:20.008Z,17.10
2018-06-22T04:22:48.906Z,17.20
2018-06-22T04:25:18.421Z,17.40
2018-06-22T04:27:47.115Z,17.50
2018-06-22T04:30:15.978Z,17.40
2018-06-22T04:32:44.883Z,17.40
2018-06-22T04:35:13.525Z,17.40
2018-06-22T04:37:42.056Z,17.40
2018-06-22T04:40:10.838Z,17.40
2018-06-22T04:42:39.720Z,17.50
2018-06-22T04:45:08.578Z,17.60
2018-06-22T04:47:37.420Z,17.80
2018-06-22T04:50:06.320Z,18.00
2018-06-22T04:52:35.203Z,18.20
2018-06-22T04:55:04.047Z,18.40
2018-06-22T04:57:33.028Z,18.60
2018-06-22T05:00:01.643Z,18.80
2018-06-22T05:02:30.196Z,18.80
2018-06-22T05:04:58.755Z,18.90
2018-06-22T05:09:55.871Z,19.00
2018-06-22T05:12:24.750Z,18.80
2018-06-22T05:14:53.663Z,18.70
2018-06-22T05:17:22.583Z,18.70
2018-06-22T05:19:51.244Z,18.90
2018-06-22T05:22:19.811Z,19.20
2018-06-22T05:24:48.390Z,19.50
2018-06-22T05:27:16.881Z,19.70
2018-06-22T05:29:45.436Z,19.80
2018-06-22T05:32:14.621Z,20.10
2018-06-22T05:34:43.182Z,20.20
2018-06-22T05:37:11.724Z,20.40
2018-06-22T05:39:40.303Z,20.60
2018-06-22T05:42:09.128Z,20.70
2018-06-22T05:44:37.715Z,20.60
2018-06-22T05:47:06.258Z,20.70
2018-06-22T05:49:34.926Z,20.80
2018-06-22T05:52:03.583Z,20.90
2018-06-22T05:54:32.238Z,21.20
2018-06-22T05:59:29.150Z,21.30
2018-06-22T06:01:57.722Z,21.40
2018-06-22T06:04:26.328Z,21.20
2018-06-22T06:06:54.937Z,21.20
2018-06-22T06:09:23.753Z,21.30
2018-06-22T06:11:52.973Z,21.30
2018-06-22T06:14:21.893Z,21.50
2018-06-22T06:16:50.817Z,21.60
2018-06-22T06:19:19.813Z,21.50
2018-06-22T06:21:48.713Z,21.30
2018-06-22T06:24:17.595Z,21.10
2018-06-22T06:26:46.460Z,21.30
2018-06-22T06:29:15.402Z,21.40
2018-06-22T06:31:44.352Z,21.30
2018-06-22T06:34:13.291Z,21.40
2018-06-22T06:36:42.298Z,21.40
2018-06-22T06:39:11.037Z,21.40
2018-06-22T06:41:39.723Z,21.30
2018-06-22T06:44:08.437Z,21.30
2018-06-22T06:46:36.936Z,21.40
2018-06-22T06:49:05.556Z,21.60
2018-06-22T06:51:34.103Z,21.70
2018-06-22T06:54:02.979Z,21.70
2018-06-22T06:56:31.524Z,21.80
2018-06-22T06:59:00.284Z,21.80
2018-06-22T07:01:29.214Z,21.90
2018-06-22T07:03:58.216Z,22.10
2018-06-22T07:06:27.061Z,22.40
2018-06-22T07:08:55.892Z,22.80
2018-06-22T07:11:24.896Z,22.70
2018-06-22T07:13:53.758Z,22.60
2018-06-22T07:16:22.666Z,22.30
2018-06-22T07:18:51.533Z,22.20
2018-06-22T07:21:21.244Z,22.50
2018-06-22T07:23:50.209Z,22.70
2018-06-22T07:26:19.186Z,23.10
2018-06-22T07:28:48.034Z,23.40
2018-06-22T07:31:16.941Z,23.80
2018-06-22T07:33:46.193Z,23.80
2018-06-22T07:36:15.244Z,23.60
2018-06-22T07:38:43.976Z,23.50
2018-06-22T07:41:12.526Z,23.50
2018-06-22T07:43:42.063Z,23.50
2018-06-22T07:46:10.687Z,23.60
2018-06-22T07:48:39.496Z,23.60
2018-06-22T07:51:09.009Z,23.50
2018-06-22T07:53:38.352Z,23.50
2018-06-22T07:56:07.203Z,23.40
2018-06-22T07:58:36.149Z,23.50
2018-06-22T08:01:05.067Z,23.50
2018-06-22T08:03:33.896Z,23.40
2018-06-22T08:06:02.749Z,23.50
2018-06-22T08:08:31.672Z,23.40
2018-06-22T08:11:00.593Z,23.70
2018-06-22T08:13:30.356Z,23.80
2018-06-22T08:15:59.242Z,23.90
2018-06-22T08:18:28.182Z,24.10
2018-06-22T08:20:57.038Z,24.40
2018-06-22T08:23:25.951Z,24.90
2018-06-22T08:25:54.884Z,25.00
2018-06-22T08:28:23.814Z,25.00
2018-06-22T08:30:52.771Z,25.10
2018-06-22T08:33:21.646Z,24.90
2018-06-22T08:35:50.548Z,24.90
2018-06-22T08:38:19.396Z,24.60
2018-06-22T08:40:48.444Z,24.10
2018-06-22T08:43:17.281Z,24.00
2018-06-22T08:45:46.263Z,24.00
2018-06-22T08:48:14.893Z,24.10
2018-06-22T08:50:43.539Z,24.00
2018-06-22T08:53:13.041Z,24.20
2018-06-22T08:55:41.666Z,24.30
2018-06-22T08:58:10.465Z,24.40
2018-06-22T09:00:39.369Z,24.60
2018-06-22T09:03:09.308Z,24.70
2018-06-22T09:05:38.311Z,24.80
2018-06-22T09:08:13.036Z,25.00
2018-06-22T09:10:43.858Z,25.20
2018-06-22T09:13:13.007Z,25.30
2018-06-22T09:15:42.024Z,25.40
2018-06-22T09:18:11.119Z,25.70
2018-06-22T09:20:40.114Z,26.10
2018-06-22T09:23:09.244Z,26.60
2018-06-22T09:25:38.193Z,27.00
2018-06-22T09:28:06.835Z,27.20
2018-06-22T09:30:36.476Z,26.90
2018-06-22T09:33:05.114Z,26.50
2018-06-22T09:35:33.728Z,26.50
2018-06-22T09:38:02.403Z,26.30
2018-06-22T09:40:31.055Z,26.40
2018-06-22T09:42:59.714Z,26.60
2018-06-22T09:45:28.377Z,26.60
2018-06-22T09:47:57.376Z,26.50
2018-06-22T09:50:26.324Z,26.50
2018-06-22T09:52:55.300Z,26.20
2018-06-22T09:55:24.264Z,26.70
2018-06-22T09:57:53.041Z,26.70
2018-06-22T10:00:21.691Z,27.10
2018-06-22T10:02:50.425Z,27.40
2018-06-22T10:05:19.055Z,27.60
2018-06-22T10:07:47.671Z,26.90
2018-06-22T10:10:16.200Z,26.70
2018-06-22T10:12:44.863Z,26.60
2018-06-22T10:15:13.448Z,26.50
2018-06-22T10:17:42.318Z,26.60
2018-06-22T10:20:11.158Z,26.70
2018-06-22T10:22:40.168Z,27.10
2018-06-22T10:25:09.146Z,27.20
2018-06-22T10:27:38.556Z,27.50
2018-06-22T10:30:07.128Z,27.50
2018-06-22T10:32:35.703Z,27.00
2018-06-22T10:35:04.398Z,27.30
2018-06-22T10:37:33.044Z,27.60
2018-06-22T10:40:01.712Z,27.10
2018-06-22T10:42:30.295Z,26.80
2018-06-22T10:44:58.923Z,26.60
2018-06-22T10:47:27.888Z,26.40
2018-06-22T10:49:57.051Z,26.40
2018-06-22T10:52:26.036Z,27.10
2018-06-22T10:54:55.175Z,27.80
2018-06-22T10:57:24.031Z,28.00
2018-06-22T10:59:53.014Z,28.40
2018-06-22T11:02:21.643Z,28.30
2018-06-22T11:04:50.281Z,28.20
2018-06-22T11:07:19.334Z,27.90
2018-06-22T11:09:48.361Z,28.00
2018-06-22T11:12:17.276Z,27.80
2018-06-22T11:14:46.164Z,27.80
2018-06-22T11:17:15.104Z,27.90
2018-06-22T11:19:44.078Z,27.40
2018-06-22T11:22:12.949Z,27.40
2018-06-22T11:24:42.041Z,27.10
2018-06-22T11:27:10.931Z,26.60
2018-06-22T11:29:39.664Z,26.80
2018-06-22T11:32:08.623Z,27.00
2018-06-22T11:34:37.429Z,27.00
2018-06-22T11:37:06.556Z,27.50
2018-06-22T11:39:35.263Z,27.70
2018-06-22T11:42:04.031Z,27.90
2018-06-22T11:44:32.616Z,27.70
2018-06-22T11:47:01.896Z,27.70
2018-06-22T11:49:31.185Z,27.60
2018-06-22T11:52:00.344Z,27.60
2018-06-22T11:54:29.343Z,27.80
2018-06-22T11:56:58.201Z,27.80
2018-06-22T11:59:27.284Z,28.00
2018-06-22T12:01:55.855Z,28.10
2018-06-22T12:04:24.571Z,28.20
2018-06-22T12:06:53.787Z,28.10
2018-06-22T12:09:22.826Z,28.10
2018-06-22T12:11:51.874Z,28.40
2018-06-22T12:14:20.895Z,28.30
2018-06-22T12:16:49.942Z,28.30
2018-06-22T12:19:19.131Z,28.40
2018-06-22T12:21:48.107Z,28.20
2018-06-22T12:24:17.046Z,28.50
2018-06-22T12:26:46.202Z,28.70
2018-06-22T12:29:15.723Z,29.20
2018-06-22T12:31:44.655Z,29.60
2018-06-22T12:34:13.604Z,29.90
2018-06-22T12:36:42.741Z,30.90
2018-06-22T12:39:13.033Z,30.80
2018-06-22T12:41:42.728Z,30.10
2018-06-22T12:44:11.365Z,30.00
2018-06-22T12:46:40.160Z,30.10
2018-06-22T12:49:08.993Z,30.40
2018-06-22T12:51:37.782Z,30.20
2018-06-22T12:54:06.665Z,29.50
2018-06-22T12:56:35.588Z,29.70
2018-06-22T12:59:04.636Z,29.50
2018-06-22T13:01:33.597Z,29.80
2018-06-22T13:04:02.577Z,30.40
2018-06-22T13:06:31.520Z,30.50
2018-06-22T13:09:00.269Z,30.60
2018-06-22T13:11:28.991Z,30.00
2018-06-22T13:13:57.621Z,29.90
2018-06-22T13:16:26.424Z,29.40
2018-06-22T13:18:55.496Z,29.70
2018-06-22T13:21:24.476Z,29.70
2018-06-22T13:23:53.429Z,29.40
2018-06-22T13:28:51.157Z,29.30
2018-06-22T13:31:20.224Z,30.30
2018-06-22T13:36:17.649Z,31.20
2018-06-22T13:38:46.536Z,30.80
2018-06-22T13:41:15.478Z,30.10
2018-06-22T13:43:44.197Z,30.30
2018-06-22T13:46:13.144Z,30.70
2018-06-22T13:48:42.096Z,31.00
2018-06-22T13:51:11.198Z,30.50
2018-06-22T13:53:40.194Z,30.40
2018-06-22T13:56:08.951Z,30.70
2018-06-22T13:58:37.733Z,30.80
2018-06-22T14:01:06.560Z,30.80
2018-06-22T14:03:39.766Z,31.40
2018-06-22T14:06:14.061Z,30.70
2018-06-22T14:08:42.739Z,31.20
2018-06-22T14:11:11.392Z,31.30
2018-06-22T14:13:39.984Z,31.00
2018-06-22T14:16:08.923Z,30.50
2018-06-22T14:18:37.896Z,30.60
2018-06-22T14:21:07.031Z,30.50
2018-06-22T14:23:36.077Z,29.90
2018-06-22T14:26:05.461Z,29.10
2018-06-22T14:28:34.473Z,28.30
2018-06-22T14:31:03.556Z,27.80
2018-06-22T14:33:32.547Z,27.70
2018-06-22T14:36:01.529Z,28.30
2018-06-22T14:38:30.653Z,28.80
2018-06-22T14:40:59.703Z,29.20
2018-06-22T14:43:28.425Z,29.30
2018-06-22T14:45:57.689Z,29.90
2018-06-22T14:48:26.785Z,30.10
2018-06-22T14:50:55.760Z,30.30
2018-06-22T14:53:30.280Z,30.80
2018-06-22T14:56:04.893Z,31.10
2018-06-22T14:58:39.204Z,31.50
2018-06-22T15:01:13.553Z,31.60
2018-06-22T15:03:47.734Z,31.70
2018-06-22T15:06:21.791Z,31.90
2018-06-22T15:08:50.516Z,31.30
2018-06-22T15:11:19.128Z,30.70
2018-06-22T15:13:49.189Z,30.40
2018-06-22T15:16:17.964Z,29.90
2018-06-22T15:18:47.236Z,29.60
2018-06-22T15:21:15.859Z,29.50
2018-06-22T15:23:44.456Z,29.20
2018-06-22T15:26:13.126Z,28.90
2018-06-22T15:28:42.036Z,28.70
2018-06-22T15:31:10.961Z,28.40
2018-06-22T15:33:45.376Z,28.10
2018-06-22T15:36:19.882Z,28.50
2018-06-22T15:38:54.531Z,28.40
2018-06-22T15:41:29.062Z,28.10
2018-06-22T15:44:03.568Z,27.80
2018-06-22T15:46:38.218Z,27.60
2018-06-22T15:49:12.547Z,27.90
2018-06-22T15:51:46.823Z,27.90
2018-06-22T15:54:22.359Z,27.90
2018-06-22T15:56:51.141Z,28.10
2018-06-22T15:59:20.212Z,28.30
2018-06-22T16:01:49.109Z,28.20
2018-06-22T16:04:18.083Z,28.50
2018-06-22T16:06:47.016Z,28.50
2018-06-22T16:09:15.761Z,28.20
2018-06-22T16:11:44.447Z,27.90
2018-06-22T16:14:18.520Z,27.80
2018-06-22T16:16:52.637Z,27.20
2018-06-22T16:19:28.120Z,26.60
2018-06-22T16:22:02.703Z,26.50
2018-06-22T16:24:37.203Z,26.40
2018-06-22T16:27:07.759Z,26.40
2018-06-22T16:29:36.793Z,26.20
2018-06-22T16:32:05.799Z,26.60
2018-06-22T16:34:34.751Z,26.70
2018-06-22T16:37:03.714Z,26.80
2018-06-22T16:39:32.685Z,26.70
2018-06-22T16:42:03.276Z,26.50
2018-06-22T16:44:32.195Z,26.60
2018-06-22T16:47:01.271Z,26.60
2018-06-22T16:49:30.333Z,26.30
2018-06-22T16:51:59.316Z,26.10
2018-06-22T16:54:28.237Z,25.90
2018-06-22T16:59:26.034Z,25.70
2018-06-22T17:01:55.037Z,25.70
2018-06-22T17:04:23.982Z,25.50
2018-06-22T17:06:58.461Z,25.50
2018-06-22T17:09:33.001Z,25.40
2018-06-22T17:14:10.753Z,25.40
2018-06-22T17:16:45.123Z,25.40
2018-06-22T17:19:19.182Z,25.60
2018-06-22T17:21:48.061Z,25.60
2018-06-22T17:26:45.834Z,25.40
2018-06-22T17:29:14.856Z,25.50
2018-06-22T17:31:43.576Z,25.30
2018-06-22T17:34:12.218Z,25.20
2018-06-22T17:36:41.008Z,25.00
2018-06-22T17:39:11.399Z,25.20
2018-06-22T17:41:40.301Z,25.30
2018-06-22T17:44:09.248Z,25.30
2018-06-22T17:46:38.279Z,25.30
2018-06-22T17:49:07.207Z,25.30
2018-06-22T17:51:36.124Z,25.20
2018-06-22T17:54:05.608Z,25.20
2018-06-22T17:56:34.164Z,25.20
2018-06-22T17:59:08.386Z,25.30
2018-06-22T18:01:42.793Z,25.10
2018-06-22T18:06:25.816Z,24.90
2018-06-22T18:08:54.799Z,24.80
2018-06-22T18:11:29.338Z,24.80
2018-06-22T18:13:58.242Z,24.90
2018-06-22T18:16:27.434Z,24.90
2018-06-22T18:18:56.439Z,25.10
2018-06-22T18:21:25.459Z,24.90
2018-06-22T18:23:54.427Z,24.80
2018-06-22T18:26:23.407Z,24.80
2018-06-22T18:28:52.368Z,24.70
2018-06-22T18:31:21.129Z,24.70
2018-06-22T18:33:49.904Z,24.70
2018-06-22T18:36:18.663Z,24.70
2018-06-22T18:38:47.304Z,24.60
2018-06-22T18:41:15.984Z,24.40
2018-06-22T18:43:50.301Z,24.30
2018-06-22T18:46:19.173Z,24.20
2018-06-22T18:48:47.876Z,24.20
2018-06-22T18:51:16.806Z,24.10
2018-06-22T18:56:25.982Z,23.90
2018-06-22T18:59:01.292Z,23.90
2018-06-22T19:01:36.286Z,23.90
2018-06-22T19:04:05.024Z,24.00
2018-06-22T19:06:33.683Z,23.90
2018-06-22T19:09:02.364Z,23.80
2018-06-22T19:11:31.318Z,23.80
2018-06-22T19:14:00.229Z,23.60
2018-06-22T19:16:29.229Z,23.50
2018-06-22T19:18:58.261Z,23.40
2018-06-22T19:21:26.958Z,23.20
2018-06-22T19:23:55.585Z,23.20
2018-06-22T19:26:24.204Z,23.10
2018-06-22T19:28:52.833Z,22.90
2018-06-22T19:31:21.591Z,22.80
2018-06-22T19:41:15.984Z,22.80
2018-06-22T19:43:50.403Z,22.80
2018-06-22T19:46:24.958Z,22.60
2018-06-22T19:49:00.147Z,22.60
2018-06-22T19:51:34.340Z,22.50
2018-06-22T19:54:05.495Z,22.50
2018-06-22T19:56:34.176Z,22.60
2018-06-22T19:59:03.015Z,22.60
2018-06-22T20:01:32.151Z,22.50
2018-06-22T20:04:01.198Z,22.40
2018-06-22T20:06:30.150Z,22.40
2018-06-22T20:08:59.146Z,22.40
2018-06-22T20:11:28.603Z,22.30
2018-06-22T20:13:57.548Z,22.20
2018-06-22T20:16:26.834Z,22.20
2018-06-22T20:18:56.010Z,22.10
2018-06-22T20:21:24.889Z,22.10
2018-06-22T20:26:22.071Z,22.10
2018-06-22T20:28:50.732Z,22.20
2018-06-22T20:31:25.260Z,22.20
2018-06-22T20:33:54.336Z,22.20
2018-06-22T20:36:29.086Z,22.30
2018-06-22T20:39:03.529Z,22.20
2018-06-22T20:41:37.756Z,22.10
2018-06-22T20:44:12.061Z,22.10
2018-06-22T20:46:46.288Z,22.00
2018-06-22T20:49:20.696Z,22.10
2018-06-22T20:51:49.439Z,22.10
2018-06-22T20:54:18.124Z,22.10
2018-06-22T20:56:46.816Z,22.10
2018-06-22T20:59:15.514Z,22.10
2018-06-22T21:04:12.789Z,22.10
2018-06-22T21:06:41.494Z,22.10
2018-06-22T21:09:10.679Z,22.10
2018-06-22T21:14:08.358Z,22.10
2018-06-22T21:16:37.335Z,22.10
2018-06-22T21:19:06.320Z,22.00
2018-06-22T21:24:09.858Z,21.90
2018-06-22T21:26:38.531Z,21.80
2018-06-22T21:29:12.789Z,21.90
2018-06-22T21:31:46.880Z,21.90
2018-06-22T21:34:21.001Z,21.90
2018-06-22T21:36:55.223Z,21.90
2018-06-22T21:39:23.866Z,21.90
2018-06-22T21:44:21.666Z,21.80
2018-06-22T21:46:50.605Z,21.70
2018-06-22T21:49:19.514Z,21.70
2018-06-22T21:51:48.449Z,21.60
2018-06-22T21:54:17.331Z,21.60
2018-06-22T21:56:46.316Z,21.50
2018-06-22T21:59:15.183Z,21.40
2018-06-22T22:01:43.879Z,21.50
2018-06-22T22:04:12.476Z,21.40
2018-06-22T22:06:41.156Z,21.40
2018-06-22T22:11:44.651Z,21.30
2018-06-22T22:14:13.498Z,21.30
2018-06-22T22:16:42.453Z,21.20
2018-06-22T22:21:40.053Z,21.00
2018-06-22T22:24:09.026Z,21.10
2018-06-22T22:26:38.037Z,21.00
2018-06-22T22:29:07.800Z,21.00
2018-06-22T22:31:37.425Z,20.90
2018-06-22T22:34:06.393Z,20.90
2018-06-22T22:36:35.363Z,21.00
2018-06-22T22:39:07.202Z,21.00
2018-06-22T22:41:36.468Z,20.90
2018-06-22T22:44:05.646Z,20.80
2018-06-22T22:46:34.213Z,20.70
2018-06-22T22:49:03.106Z,20.70
2018-06-22T22:51:32.026Z,20.70
2018-06-22T22:54:00.760Z,20.70
2018-06-22T22:56:29.383Z,20.60
2018-06-22T22:58:58.278Z,20.50
2018-06-22T23:01:27.348Z,20.50
2018-06-22T23:03:55.936Z,20.50
2018-06-22T23:06:24.516Z,20.40
2018-06-22T23:08:53.108Z,20.30
2018-06-22T23:11:21.721Z,20.20
2018-06-22T23:13:50.355Z,20.10
2018-06-22T23:16:18.976Z,20.10
2018-06-22T23:18:47.551Z,20.10
2018-06-22T23:21:16.113Z,20.00
2018-06-22T23:23:44.848Z,19.90
2018-06-22T23:28:42.788Z,19.80
2018-06-22T23:31:11.401Z,19.70
2018-06-22T23:33:40.015Z,19.70
2018-06-22T23:36:08.633Z,19.60
2018-06-22T23:38:37.317Z,19.50
2018-06-22T23:41:06.096Z,19.50
2018-06-22T23:43:35.088Z,19.50
2018-06-22T23:46:04.131Z,19.40
2018-06-22T23:51:01.694Z,19.40
2018-06-22T23:53:30.613Z,19.30
2018-06-22T23:55:59.564Z,19.30
2018-06-22T23:58:28.451Z,19.30
